Terminal Aerodrome Forecast
Issued by NWS

Home | Current Version | Previous Version | Text Only | Print | Product List | Glossary On
Versions: 1 2 3 4 5 6 7 8 9 10 11 12 13
000
FTUS41 KPBZ 280500
TAFLBE
TAF
KLBE 280526Z 2806/2906 23008KT P6SM -SHRA OVC025
     FM280700 26008KT 4SM -RA OVC015
     FM280900 30008KT 2SM -RA OVC008
     FM281300 29007KT P6SM -SHRA OVC015
     FM281700 30006KT P6SM BKN025=

USA.gov is the U.S. government's official web portal to all federal, state and local government web resources and services.